sensor_id;sensor_type;location;lat;lon;timestamp;pressure;altitude;pressure_sealevel;temperature;humidity
56006;BME280;41888;44.696;10.522;2023-02-03T00:00:36;101391.47;;;5.19;82.88
56006;BME280;41888;44.696;10.522;2023-02-03T00:03:02;101394.06;;;5.01;83.27
56006;BME280;41888;44.696;10.522;2023-02-03T00:05:29;101394.09;;;4.92;83.50
56006;BME280;41888;44.696;10.522;2023-02-03T00:07:56;101394.16;;;4.73;85.75
56006;BME280;41888;44.696;10.522;2023-02-03T00:10:22;101386.38;;;4.81;85.27
56006;BME280;41888;44.696;10.522;2023-02-03T00:12:50;101393.06;;;4.65;85.14
56006;BME280;41888;44.696;10.522;2023-02-03T00:15:17;101406.44;;;4.54;85.85
56006;BME280;41888;44.696;10.522;2023-02-03T00:17:44;101400.88;;;4.29;88.75
56006;BME280;41888;44.696;10.522;2023-02-03T00:20:10;101398.56;;;4.16;90.57
56006;BME280;41888;44.696;10.522;2023-02-03T00:22:37;101399.81;;;4.21;89.78
56006;BME280;41888;44.696;10.522;2023-02-03T00:25:03;101392.59;;;4.14;90.32
56006;BME280;41888;44.696;10.522;2023-02-03T00:27:30;101390.94;;;4.03;90.79
56006;BME280;41888;44.696;10.522;2023-02-03T00:29:57;101406.91;;;4.02;90.43
56006;BME280;41888;44.696;10.522;2023-02-03T00:32:23;101397.16;;;4.02;91.42
56006;BME280;41888;44.696;10.522;2023-02-03T00:34:49;101412.41;;;3.99;91.41
56006;BME280;41888;44.696;10.522;2023-02-03T00:37:15;101407.84;;;4.01;91.23
56006;BME280;41888;44.696;10.522;2023-02-03T00:39:41;101406.97;;;3.52;94.49
56006;BME280;41888;44.696;10.522;2023-02-03T00:42:07;101409.59;;;3.62;95.05
56006;BME280;41888;44.696;10.522;2023-02-03T00:44:34;101408.22;;;3.58;95.44
56006;BME280;41888;44.696;10.522;2023-02-03T00:47:00;101416.88;;;3.39;96.87
56006;BME280;41888;44.696;10.522;2023-02-03T00:49:26;101411.34;;;3.32;97.19
56006;BME280;41888;44.696;10.522;2023-02-03T00:51:52;101411.91;;;2.96;99.51
56006;BME280;41888;44.696;10.522;2023-02-03T00:54:18;101423.53;;;2.73;100.00
56006;BME280;41888;44.696;10.522;2023-02-03T00:56:44;101423.94;;;2.98;100.00
56006;BME280;41888;44.696;10.522;2023-02-03T00:59:11;101426.13;;;2.93;100.00
56006;BME280;41888;44.696;10.522;2023-02-03T01:01:37;101425.84;;;2.96;100.00
56006;BME280;41888;44.696;10.522;2023-02-03T01:04:03;101425.88;;;2.76;100.00
56006;BME280;41888;44.696;10.522;2023-02-03T01:06:30;101429.13;;;2.38;100.00
56006;BME280;41888;44.696;10.522;2023-02-03T01:08:56;101428.19;;;2.28;100.00
56006;BME280;41888;44.696;10.522;2023-02-03T01:11:25;101422.72;;;2.31;100.00
56006;BME280;41888;44.696;10.522;2023-02-03T01:13:55;101433.22;;;2.31;100.00
56006;BME280;41888;44.696;10.522;2023-02-03T01:16:24;101430.63;;;2.20;100.00
56006;BME280;41888;44.696;10.522;2023-02-03T01:18:50;101422.19;;;2.16;100.00
56006;BME280;41888;44.696;10.522;2023-02-03T01:21:19;101412.56;;;2.05;100.00
56006;BME280;41888;44.696;10.522;2023-02-03T01:23:46;101412.97;;;2.22;100.00
56006;BME280;41888;44.696;10.522;2023-02-03T01:26:14;101412.81;;;2.02;100.00
56006;BME280;41888;44.696;10.522;2023-02-03T01:28:41;101419.16;;;2.00;100.00
56006;BME280;41888;44.696;10.522;2023-02-03T01:31:15;101419.56;;;1.84;100.00
56006;BME280;41888;44.696;10.522;2023-02-03T01:33:43;101424.06;;;1.93;100.00
56006;BME280;41888;44.696;10.522;2023-02-03T01:36:15;101432.13;;;2.01;100.00
56006;BME280;41888;44.696;10.522;2023-02-03T01:38:42;101434.34;;;2.17;100.00
56006;BME280;41888;44.696;10.522;2023-02-03T01:41:15;101429.59;;;2.43;100.00
56006;BME280;41888;44.696;10.522;2023-02-03T01:43:44;101426.56;;;2.68;100.00
56006;BME280;41888;44.696;10.522;2023-02-03T01:46:45;101428.53;;;2.34;100.00
56006;BME280;41888;44.696;10.522;2023-02-03T01:49:22;101420.78;;;2.33;100.00
56006;BME280;41888;44.696;10.522;2023-02-03T01:51:50;101422.22;;;2.37;100.00
56006;BME280;41888;44.696;10.522;2023-02-03T01:54:39;101402.84;;;2.17;100.00
56006;BME280;41888;44.696;10.522;2023-02-03T01:57:15;101399.16;;;1.88;100.00
56006;BME280;41888;44.696;10.522;2023-02-03T01:59:42;101407.13;;;1.86;100.00
56006;BME280;41888;44.696;10.522;2023-02-03T02:02:10;101404.56;;;1.75;100.00
56006;BME280;41888;44.696;10.522;2023-02-03T02:04:48;101411.13;;;1.69;100.00
56006;BME280;41888;44.696;10.522;2023-02-03T02:07:16;101411.13;;;1.69;100.00
56006;BME280;41888;44.696;10.522;2023-02-03T02:09:43;101414.81;;;1.78;100.00
56006;BME280;41888;44.696;10.522;2023-02-03T02:12:10;101423.34;;;1.91;100.00
56006;BME280;41888;44.696;10.522;2023-02-03T02:14:37;101416.81;;;1.86;100.00
56006;BME280;41888;44.696;10.522;2023-02-03T02:19:51;101419.56;;;1.84;100.00
56006;BME280;41888;44.696;10.522;2023-02-03T02:39:13;101396.56;;;1.77;100.00
56006;BME280;41888;44.696;10.522;2023-02-03T02:42:00;101407.94;;;1.98;100.00
56006;BME280;41888;44.696;10.522;2023-02-03T02:44:38;101409.75;;;1.86;100.00
56006;BME280;41888;44.696;10.522;2023-02-03T02:47:20;101412.63;;;1.94;100.00
56006;BME280;41888;44.696;10.522;2023-02-03T02:50:04;101420.34;;;1.96;100.00
56006;BME280;41888;44.696;10.522;2023-02-03T02:52:35;101420.63;;;2.13;100.00
56006;BME280;41888;44.696;10.522;2023-02-03T02:55:13;101424.66;;;2.18;100.00
56006;BME280;41888;44.696;10.522;2023-02-03T02:57:41;101421.75;;;2.11;100.00
56006;BME280;41888;44.696;10.522;2023-02-03T03:00:09;101415.28;;;1.83;100.00
56006;BME280;41888;44.696;10.522;2023-02-03T03:02:36;101423.47;;;1.58;100.00
56006;BME280;41888;44.696;10.522;2023-02-03T03:05:08;101427.63;;;1.49;100.00
56006;BME280;41888;44.696;10.522;2023-02-03T03:07:54;101435.09;;;1.65;100.00
56006;BME280;41888;44.696;10.522;2023-02-03T03:10:25;101427.03;;;1.57;100.00
56006;BME280;41888;44.696;10.522;2023-02-03T03:13:00;101429.16;;;1.63;100.00
56006;BME280;41888;44.696;10.522;2023-02-03T03:15:30;101428.56;;;1.48;100.00
56006;BME280;41888;44.696;10.522;2023-02-03T03:18:04;101435.19;;;1.20;100.00
56006;BME280;41888;44.696;10.522;2023-02-03T03:20:35;101423.50;;;1.02;100.00
56006;BME280;41888;44.696;10.522;2023-02-03T03:23:09;101426.94;;;0.80;100.00
56006;BME280;41888;44.696;10.522;2023-02-03T03:25:40;101426.84;;;0.93;100.00
56006;BME280;41888;44.696;10.522;2023-02-03T03:28:13;101419.19;;;1.01;100.00
56006;BME280;41888;44.696;10.522;2023-02-03T03:30:41;101425.53;;;0.99;100.00
56006;BME280;41888;44.696;10.522;2023-02-03T03:33:09;101418.97;;;1.04;100.00
56006;BME280;41888;44.696;10.522;2023-02-03T03:35:52;101429.94;;;1.09;100.00
56006;BME280;41888;44.696;10.522;2023-02-03T03:38:23;101426.47;;;1.31;100.00
56006;BME280;41888;44.696;10.522;2023-02-03T03:41:11;101423.50;;;1.24;100.00
56006;BME280;41888;44.696;10.522;2023-02-03T03:43:43;101426.69;;;1.28;100.00
56006;BME280;41888;44.696;10.522;2023-02-03T03:46:12;101414.44;;;1.17;100.00
56006;BME280;41888;44.696;10.522;2023-02-03T03:51:21;101410.00;;;1.40;100.00
56006;BME280;41888;44.696;10.522;2023-02-03T03:53:51;101417.28;;;1.48;100.00
56006;BME280;41888;44.696;10.522;2023-02-03T03:56:31;101416.09;;;1.30;100.00
56006;BME280;41888;44.696;10.522;2023-02-03T03:59:01;101417.06;;;1.28;100.00
56006;BME280;41888;44.696;10.522;2023-02-03T04:01:29;101424.31;;;1.36;100.00
56006;BME280;41888;44.696;10.522;2023-02-03T04:03:59;101425.63;;;1.31;100.00
56006;BME280;41888;44.696;10.522;2023-02-03T04:06:27;101427.69;;;1.16;100.00
56006;BME280;41888;44.696;10.522;2023-02-03T04:08:53;101432.19;;;1.25;100.00
56006;BME280;41888;44.696;10.522;2023-02-03T04:11:19;101439.09;;;1.04;100.00
56006;BME280;41888;44.696;10.522;2023-02-03T04:14:04;101435.19;;;1.09;100.00
56006;BME280;41888;44.696;10.522;2023-02-03T04:16:30;101434.81;;;1.14;100.00
56006;BME280;41888;44.696;10.522;2023-02-03T04:18:56;101436.72;;;1.12;100.00
56006;BME280;41888;44.696;10.522;2023-02-03T04:21:22;101436.97;;;1.09;100.00
56006;BME280;41888;44.696;10.522;2023-02-03T04:23:48;101436.34;;;1.16;100.00
56006;BME280;41888;44.696;10.522;2023-02-03T04:26:16;101439.94;;;1.15;100.00
56006;BME280;41888;44.696;10.522;2023-02-03T04:28:43;101444.84;;;1.20;100.00
56006;BME280;41888;44.696;10.522;2023-02-03T04:31:09;101451.59;;;1.11;100.00
56006;BME280;41888;44.696;10.522;2023-02-03T04:33:35;101453.28;;;1.23;100.00
56006;BME280;41888;44.696;10.522;2023-02-03T04:36:01;101453.38;;;1.22;100.00
56006;BME280;41888;44.696;10.522;2023-02-03T04:38:28;101451.28;;;1.16;100.00
56006;BME280;41888;44.696;10.522;2023-02-03T04:40:54;101460.09;;;1.26;100.00
56006;BME280;41888;44.696;10.522;2023-02-03T04:43:20;101462.44;;;0.96;100.00
56006;BME280;41888;44.696;10.522;2023-02-03T04:45:46;101459.94;;;0.94;100.00
56006;BME280;41888;44.696;10.522;2023-02-03T04:48:12;101460.28;;;1.01;100.00
56006;BME280;41888;44.696;10.522;2023-02-03T04:50:38;101460.66;;;0.96;100.00
56006;BME280;41888;44.696;10.522;2023-02-03T04:53:04;101454.72;;;0.94;100.00
56006;BME280;41888;44.696;10.522;2023-02-03T04:55:30;101452.31;;;1.02;100.00
56006;BME280;41888;44.696;10.522;2023-02-03T04:57:58;101453.88;;;0.94;100.00
56006;BME280;41888;44.696;10.522;2023-02-03T05:00:25;101455.06;;;1.01;100.00
56006;BME280;41888;44.696;10.522;2023-02-03T05:02:52;101450.91;;;0.98;100.00
56006;BME280;41888;44.696;10.522;2023-02-03T05:05:18;101450.78;;;0.89;100.00
56006;BME280;41888;44.696;10.522;2023-02-03T05:07:45;101449.22;;;0.86;100.00
56006;BME280;41888;44.696;10.522;2023-02-03T05:10:11;101452.06;;;0.83;100.00
56006;BME280;41888;44.696;10.522;2023-02-03T05:12:37;101442.91;;;0.77;100.00
56006;BME280;41888;44.696;10.522;2023-02-03T05:15:04;101435.91;;;0.89;100.00
56006;BME280;41888;44.696;10.522;2023-02-03T05:17:30;101438.16;;;0.94;100.00
56006;BME280;41888;44.696;10.522;2023-02-03T05:19:57;101448.50;;;1.06;100.00
56006;BME280;41888;44.696;10.522;2023-02-03T05:22:23;101454.94;;;0.91;100.00
56006;BME280;41888;44.696;10.522;2023-02-03T05:24:49;101454.25;;;1.00;100.00
56006;BME280;41888;44.696;10.522;2023-02-03T05:27:15;101446.72;;;0.84;100.00
56006;BME280;41888;44.696;10.522;2023-02-03T05:29:41;101438.13;;;0.71;100.00
56006;BME280;41888;44.696;10.522;2023-02-03T05:32:07;101439.88;;;0.60;100.00
56006;BME280;41888;44.696;10.522;2023-02-03T05:34:34;101427.72;;;0.48;100.00
56006;BME280;41888;44.696;10.522;2023-02-03T05:37:00;101433.91;;;0.47;100.00
56006;BME280;41888;44.696;10.522;2023-02-03T05:39:26;101432.00;;;0.49;100.00
56006;BME280;41888;44.696;10.522;2023-02-03T05:41:52;101431.81;;;0.63;100.00
56006;BME280;41888;44.696;10.522;2023-02-03T05:44:23;101436.31;;;0.61;100.00
56006;BME280;41888;44.696;10.522;2023-02-03T05:46:53;101437.75;;;0.65;100.00
56006;BME280;41888;44.696;10.522;2023-02-03T05:49:20;101448.44;;;0.51;100.00
56006;BME280;41888;44.696;10.522;2023-02-03T05:51:48;101441.19;;;0.65;100.00
56006;BME280;41888;44.696;10.522;2023-02-03T05:54:15;101443.81;;;0.65;100.00
56006;BME280;41888;44.696;10.522;2023-02-03T05:56:42;101448.72;;;0.70;100.00
56006;BME280;41888;44.696;10.522;2023-02-03T05:59:08;101450.66;;;0.79;100.00
56006;BME280;41888;44.696;10.522;2023-02-03T06:01:35;101445.13;;;0.60;100.00
56006;BME280;41888;44.696;10.522;2023-02-03T06:04:02;101449.50;;;0.59;100.00
56006;BME280;41888;44.696;10.522;2023-02-03T06:06:28;101446.38;;;0.43;100.00
56006;BME280;41888;44.696;10.522;2023-02-03T06:09:03;101445.53;;;0.42;100.00
56006;BME280;41888;44.696;10.522;2023-02-03T06:11:30;101445.94;;;0.49;100.00
56006;BME280;41888;44.696;10.522;2023-02-03T06:13:57;101447.72;;;0.60;100.00
56006;BME280;41888;44.696;10.522;2023-02-03T06:16:25;101452.69;;;0.40;100.00
56006;BME280;41888;44.696;10.522;2023-02-03T06:18:52;101457.19;;;0.38;100.00
56006;BME280;41888;44.696;10.522;2023-02-03T06:21:19;101452.38;;;0.21;100.00
56006;BME280;41888;44.696;10.522;2023-02-03T06:23:46;101473.09;;;0.00;100.00
56006;BME280;41888;44.696;10.522;2023-02-03T06:26:13;101480.84;;;0.02;100.00
56006;BME280;41888;44.696;10.522;2023-02-03T06:28:39;101490.03;;;0.08;100.00
56006;BME280;41888;44.696;10.522;2023-02-03T06:31:06;101489.69;;;0.12;100.00
56006;BME280;41888;44.696;10.522;2023-02-03T06:33:32;101485.34;;;0.24;100.00
56006;BME280;41888;44.696;10.522;2023-02-03T06:35:59;101490.72;;;0.33;100.00
56006;BME280;41888;44.696;10.522;2023-02-03T06:38:25;101495.97;;;0.33;100.00
56006;BME280;41888;44.696;10.522;2023-02-03T06:40:51;101504.94;;;0.42;100.00
56006;BME280;41888;44.696;10.522;2023-02-03T06:43:17;101511.28;;;0.51;100.00
56006;BME280;41888;44.696;10.522;2023-02-03T06:45:46;101509.16;;;0.56;100.00
56006;BME280;41888;44.696;10.522;2023-02-03T06:48:13;101512.50;;;0.69;100.00
56006;BME280;41888;44.696;10.522;2023-02-03T06:50:40;101509.72;;;0.83;100.00
56006;BME280;41888;44.696;10.522;2023-02-03T06:53:07;101504.84;;;1.12;100.00
56006;BME280;41888;44.696;10.522;2023-02-03T06:55:33;101502.38;;;1.10;100.00
56006;BME280;41888;44.696;10.522;2023-02-03T06:57:59;101507.25;;;1.04;100.00
56006;BME280;41888;44.696;10.522;2023-02-03T07:00:25;101519.06;;;1.20;100.00
56006;BME280;41888;44.696;10.522;2023-02-03T07:02:55;101514.28;;;1.14;100.00
56006;BME280;41888;44.696;10.522;2023-02-03T07:05:23;101506.88;;;1.08;100.00
56006;BME280;41888;44.696;10.522;2023-02-03T07:07:50;101507.84;;;1.30;100.00
56006;BME280;41888;44.696;10.522;2023-02-03T07:10:17;101498.91;;;0.99;100.00
56006;BME280;41888;44.696;10.522;2023-02-03T07:12:43;101487.53;;;0.76;100.00
56006;BME280;41888;44.696;10.522;2023-02-03T07:15:10;101489.66;;;0.71;100.00
56006;BME280;41888;44.696;10.522;2023-02-03T07:17:37;101503.34;;;0.74;100.00
56006;BME280;41888;44.696;10.522;2023-02-03T07:20:04;101513.06;;;0.96;100.00
56006;BME280;41888;44.696;10.522;2023-02-03T07:22:30;101517.13;;;1.00;100.00
56006;BME280;41888;44.696;10.522;2023-02-03T07:24:57;101513.56;;;1.12;100.00
56006;BME280;41888;44.696;10.522;2023-02-03T07:27:23;101527.53;;;1.35;100.00
56006;BME280;41888;44.696;10.522;2023-02-03T07:29:49;101527.88;;;1.19;100.00
56006;BME280;41888;44.696;10.522;2023-02-03T07:32:15;101530.00;;;1.03;100.00
56006;BME280;41888;44.696;10.522;2023-02-03T07:34:41;101537.75;;;1.27;100.00
56006;BME280;41888;44.696;10.522;2023-02-03T07:37:07;101546.94;;;1.66;100.00
56006;BME280;41888;44.696;10.522;2023-02-03T07:39:34;101565.06;;;1.91;100.00
56006;BME280;41888;44.696;10.522;2023-02-03T07:42:00;101570.19;;;1.93;100.00
56006;BME280;41888;44.696;10.522;2023-02-03T07:44:26;101584.25;;;2.03;100.00
56006;BME280;41888;44.696;10.522;2023-02-03T07:46:52;101601.06;;;2.11;100.00
56006;BME280;41888;44.696;10.522;2023-02-03T07:49:18;101607.03;;;2.13;100.00
56006;BME280;41888;44.696;10.522;2023-02-03T07:51:45;101621.47;;;2.08;100.00
56006;BME280;41888;44.696;10.522;2023-02-03T07:54:11;101626.59;;;2.32;100.00
56006;BME280;41888;44.696;10.522;2023-02-03T07:56:37;101612.44;;;2.44;100.00
56006;BME280;41888;44.696;10.522;2023-02-03T07:59:03;101592.69;;;2.61;100.00
56006;BME280;41888;44.696;10.522;2023-02-03T08:01:29;101599.25;;;2.66;100.00
56006;BME280;41888;44.696;10.522;2023-02-03T08:03:56;101589.47;;;2.68;100.00
56006;BME280;41888;44.696;10.522;2023-02-03T08:06:22;101597.53;;;2.76;100.00
56006;BME280;41888;44.696;10.522;2023-02-03T08:08:48;101584.13;;;2.90;100.00
56006;BME280;41888;44.696;10.522;2023-02-03T08:11:14;101597.72;;;2.95;100.00
56006;BME280;41888;44.696;10.522;2023-02-03T08:13:40;101604.56;;;3.08;100.00
56006;BME280;41888;44.696;10.522;2023-02-03T08:16:07;101625.59;;;3.28;100.00
56006;BME280;41888;44.696;10.522;2023-02-03T08:18:33;101641.09;;;2.90;100.00
56006;BME280;41888;44.696;10.522;2023-02-03T08:20:59;101636.47;;;2.39;100.00
56006;BME280;41888;44.696;10.522;2023-02-03T08:23:27;101641.34;;;2.44;100.00
56006;BME280;41888;44.696;10.522;2023-02-03T08:25:53;101638.25;;;2.39;100.00
56006;BME280;41888;44.696;10.522;2023-02-03T08:28:19;101666.63;;;2.56;100.00
56006;BME280;41888;44.696;10.522;2023-02-03T08:30:46;101679.09;;;2.43;100.00
56006;BME280;41888;44.696;10.522;2023-02-03T08:33:12;101672.91;;;2.22;100.00
56006;BME280;41888;44.696;10.522;2023-02-03T08:35:38;101676.59;;;2.08;100.00
56006;BME280;41888;44.696;10.522;2023-02-03T08:38:05;101681.59;;;2.33;100.00
56006;BME280;41888;44.696;10.522;2023-02-03T08:40:31;101682.50;;;2.66;100.00
56006;BME280;41888;44.696;10.522;2023-02-03T08:42:57;101693.28;;;2.51;100.00
56006;BME280;41888;44.696;10.522;2023-02-03T08:45:24;101687.66;;;2.56;100.00
56006;BME280;41888;44.696;10.522;2023-02-03T08:47:50;101674.16;;;2.49;100.00
56006;BME280;41888;44.696;10.522;2023-02-03T08:50:16;101651.44;;;2.17;100.00
56006;BME280;41888;44.696;10.522;2023-02-03T08:52:43;101662.78;;;2.71;100.00
56006;BME280;41888;44.696;10.522;2023-02-03T08:55:09;101656.69;;;3.03;100.00
56006;BME280;41888;44.696;10.522;2023-02-03T08:57:36;101656.03;;;3.93;100.00
56006;BME280;41888;44.696;10.522;2023-02-03T09:00:05;101659.31;;;5.04;100.00
56006;BME280;41888;44.696;10.522;2023-02-03T09:02:31;101645.34;;;5.69;100.00
56006;BME280;41888;44.696;10.522;2023-02-03T09:04:57;101642.22;;;6.30;95.94
56006;BME280;41888;44.696;10.522;2023-02-03T09:07:24;101646.81;;;8.03;84.66
56006;BME280;41888;44.696;10.522;2023-02-03T09:09:50;101636.00;;;9.29;74.31
56006;BME280;41888;44.696;10.522;2023-02-03T09:12:16;101627.31;;;10.54;67.24
56006;BME280;41888;44.696;10.522;2023-02-03T09:14:43;101624.88;;;10.98;64.30
56006;BME280;41888;44.696;10.522;2023-02-03T09:17:09;101619.59;;;11.13;63.86
56006;BME280;41888;44.696;10.522;2023-02-03T09:19:36;101616.06;;;12.38;61.14
56006;BME280;41888;44.696;10.522;2023-02-03T09:22:02;101616.50;;;12.56;58.70
56006;BME280;41888;44.696;10.522;2023-02-03T09:24:29;101615.13;;;13.02;58.58
56006;BME280;41888;44.696;10.522;2023-02-03T09:26:56;101613.50;;;12.65;59.36
56006;BME280;41888;44.696;10.522;2023-02-03T09:29:22;101598.47;;;12.58;58.68
56006;BME280;41888;44.696;10.522;2023-02-03T09:31:49;101594.75;;;13.01;57.72
56006;BME280;41888;44.696;10.522;2023-02-03T09:34:19;101611.50;;;13.93;55.21
56006;BME280;41888;44.696;10.522;2023-02-03T09:36:46;101607.00;;;14.42;52.80
56006;BME280;41888;44.696;10.522;2023-02-03T09:39:12;101613.09;;;14.90;51.17
56006;BME280;41888;44.696;10.522;2023-02-03T09:42:27;101615.97;;;15.34;49.65
56006;BME280;41888;44.696;10.522;2023-02-03T09:47:47;101618.81;;;14.73;52.09
56006;BME280;41888;44.696;10.522;2023-02-03T09:50:24;101615.56;;;14.98;53.30
56006;BME280;41888;44.696;10.522;2023-02-03T09:52:51;101609.78;;;15.60;51.55
56006;BME280;41888;44.696;10.522;2023-02-03T10:00:33;101626.91;;;15.13;52.63
56006;BME280;41888;44.696;10.522;2023-02-03T10:04:00;101613.84;;;14.64;52.96
56006;BME280;41888;44.696;10.522;2023-02-03T10:08:51;101621.53;;;15.13;50.34
56006;BME280;41888;44.696;10.522;2023-02-03T10:11:53;101628.78;;;15.32;49.92
56006;BME280;41888;44.696;10.522;2023-02-03T10:17:32;101631.22;;;16.82;45.17
56006;BME280;41888;44.696;10.522;2023-02-03T10:22:39;101637.34;;;16.64;45.57
56006;BME280;41888;44.696;10.522;2023-02-03T10:25:20;101635.19;;;17.11;45.28
56006;BME280;41888;44.696;10.522;2023-02-03T10:27:52;101634.41;;;17.53;44.27
56006;BME280;41888;44.696;10.522;2023-02-03T10:30:23;101651.09;;;18.05;42.45
56006;BME280;41888;44.696;10.522;2023-02-03T10:33:01;101643.41;;;17.41;43.12
56006;BME280;41888;44.696;10.522;2023-02-03T10:36:03;101639.97;;;17.34;43.37
56006;BME280;41888;44.696;10.522;2023-02-03T10:41:34;101619.75;;;17.92;41.03
56006;BME280;41888;44.696;10.522;2023-02-03T10:44:04;101616.00;;;18.89;39.52
56006;BME280;41888;44.696;10.522;2023-02-03T10:46:33;101610.56;;;18.78;40.09
56006;BME280;41888;44.696;10.522;2023-02-03T10:49:00;101611.88;;;17.72;42.55
56006;BME280;41888;44.696;10.522;2023-02-03T10:51:36;101616.50;;;17.41;43.22
56006;BME280;41888;44.696;10.522;2023-02-03T10:54:03;101611.03;;;15.31;47.84
56006;BME280;41888;44.696;10.522;2023-02-03T10:56:34;101609.34;;;15.76;48.36
56006;BME280;41888;44.696;10.522;2023-02-03T10:59:01;101615.06;;;15.99;48.38
56006;BME280;41888;44.696;10.522;2023-02-03T11:01:43;101623.69;;;16.08;49.84
56006;BME280;41888;44.696;10.522;2023-02-03T11:04:27;101614.41;;;16.11;50.14
56006;BME280;41888;44.696;10.522;2023-02-03T11:06:55;101600.91;;;15.40;52.10
56006;BME280;41888;44.696;10.522;2023-02-03T11:09:39;101593.19;;;14.38;54.72
56006;BME280;41888;44.696;10.522;2023-02-03T11:12:19;101589.59;;;14.85;55.39
56006;BME280;41888;44.696;10.522;2023-02-03T11:14:47;101579.69;;;15.58;53.86
56006;BME280;41888;44.696;10.522;2023-02-03T11:17:19;101578.69;;;16.10;51.98
56006;BME280;41888;44.696;10.522;2023-02-03T11:19:49;101577.41;;;16.13;51.49
56006;BME280;41888;44.696;10.522;2023-02-03T11:22:31;101577.34;;;16.32;50.88
56006;BME280;41888;44.696;10.522;2023-02-03T11:25:02;101572.69;;;16.08;51.21
56006;BME280;41888;44.696;10.522;2023-02-03T11:27:30;101579.03;;;15.69;52.34
56006;BME280;41888;44.696;10.522;2023-02-03T11:30:22;101566.03;;;15.46;53.76
56006;BME280;41888;44.696;10.522;2023-02-03T11:32:50;101564.81;;;15.55;54.23
56006;BME280;41888;44.696;10.522;2023-02-03T11:35:21;101558.22;;;15.38;55.58
56006;BME280;41888;44.696;10.522;2023-02-03T11:37:54;101558.19;;;15.45;56.83
56006;BME280;41888;44.696;10.522;2023-02-03T11:47:58;101546.47;;;15.19;61.37
56006;BME280;41888;44.696;10.522;2023-02-03T11:50:43;101544.34;;;15.81;59.50
56006;BME280;41888;44.696;10.522;2023-02-03T12:02:06;101542.97;;;16.47;57.02
56006;BME280;41888;44.696;10.522;2023-02-03T12:13:35;101500.03;;;15.58;59.69
56006;BME280;41888;44.696;10.522;2023-02-03T12:16:16;101488.34;;;14.80;60.94
56006;BME280;41888;44.696;10.522;2023-02-03T12:19:00;101485.72;;;12.84;71.80
56006;BME280;41888;44.696;10.522;2023-02-03T12:21:50;101469.75;;;12.41;77.71
56006;BME280;41888;44.696;10.522;2023-02-03T12:30:02;101432.19;;;13.80;70.73
56006;BME280;41888;44.696;10.522;2023-02-03T12:40:33;101413.13;;;14.10;66.38
56006;BME280;41888;44.696;10.522;2023-02-03T12:45:57;101391.97;;;13.54;70.36
56006;BME280;41888;44.696;10.522;2023-02-03T12:51:42;101395.31;;;15.27;60.44
56006;BME280;41888;44.696;10.522;2023-02-03T12:54:38;101384.06;;;15.56;59.10
56006;BME280;41888;44.696;10.522;2023-02-03T12:57:25;101376.66;;;15.52;58.77
56006;BME280;41888;44.696;10.522;2023-02-03T13:00:15;101385.97;;;14.65;62.14
56006;BME280;41888;44.696;10.522;2023-02-03T13:02:58;101377.53;;;14.75;62.88
56006;BME280;41888;44.696;10.522;2023-02-03T13:06:35;101371.16;;;14.69;62.74
56006;BME280;41888;44.696;10.522;2023-02-03T13:08:40;101351.75;;;13.88;65.83
56006;BME280;41888;44.696;10.522;2023-02-03T13:13:55;101342.72;;;14.03;63.34
56006;BME280;41888;44.696;10.522;2023-02-03T13:16:34;101346.22;;;13.90;61.06
56006;BME280;41888;44.696;10.522;2023-02-03T13:19:06;101337.19;;;13.24;61.96
56006;BME280;41888;44.696;10.522;2023-02-03T13:21:36;101326.59;;;12.34;66.54
56006;BME280;41888;44.696;10.522;2023-02-03T13:24:05;101320.81;;;12.02;70.52
56006;BME280;41888;44.696;10.522;2023-02-03T13:26:57;101313.09;;;12.14;74.22
56006;BME280;41888;44.696;10.522;2023-02-03T13:29:35;101305.47;;;12.39;75.37
56006;BME280;41888;44.696;10.522;2023-02-03T13:32:09;101301.81;;;12.74;73.32
56006;BME280;41888;44.696;10.522;2023-02-03T13:40:24;101309.31;;;12.57;62.72
56006;BME280;41888;44.696;10.522;2023-02-03T13:43:05;101316.78;;;12.68;61.16
56006;BME280;41888;44.696;10.522;2023-02-03T13:45:48;101309.44;;;12.49;58.13
56006;BME280;41888;44.696;10.522;2023-02-03T13:48:28;101305.19;;;11.99;62.80
56006;BME280;41888;44.696;10.522;2023-02-03T13:51:23;101308.44;;;11.95;64.75
56006;BME280;41888;44.696;10.522;2023-02-03T13:53:51;101299.94;;;12.12;64.62
56006;BME280;41888;44.696;10.522;2023-02-03T13:56:25;101301.63;;;12.13;65.62
56006;BME280;41888;44.696;10.522;2023-02-03T14:01:34;101295.81;;;12.38;70.90
56006;BME280;41888;44.696;10.522;2023-02-03T14:04:03;101297.47;;;12.39;72.91
56006;BME280;41888;44.696;10.522;2023-02-03T14:09:18;101291.34;;;12.10;67.55
56006;BME280;41888;44.696;10.522;2023-02-03T14:11:45;101287.75;;;12.24;64.41
56006;BME280;41888;44.696;10.522;2023-02-03T14:16:46;101288.63;;;11.82;66.63
56006;BME280;41888;44.696;10.522;2023-02-03T14:22:04;101272.22;;;11.43;69.91
56006;BME280;41888;44.696;10.522;2023-02-03T14:24:37;101275.84;;;11.35;71.76
56006;BME280;41888;44.696;10.522;2023-02-03T14:27:16;101279.72;;;11.54;71.33
56006;BME280;41888;44.696;10.522;2023-02-03T14:29:44;101276.19;;;11.68;71.46
56006;BME280;41888;44.696;10.522;2023-02-03T14:32:11;101271.06;;;11.88;70.92
56006;BME280;41888;44.696;10.522;2023-02-03T14:34:48;101272.72;;;11.96;71.89
56006;BME280;41888;44.696;10.522;2023-02-03T14:37:27;101270.53;;;11.99;71.66
56006;BME280;41888;44.696;10.522;2023-02-03T14:40:16;101281.25;;;11.84;72.36
56006;BME280;41888;44.696;10.522;2023-02-03T14:51:07;101264.66;;;11.82;80.55